Time;durP1;ratioP1;P1;durP2;ratioP2;P2;SDS_P1;SDS_P2;PMS_P1;PMS_P2;Temp;Humidity;BMP_temperature;BMP_pressure;BME280_temperature;BME280_humidity;BME280_pressure;Samples;Min_cycle;Max_cycle;Signal;HPM_P1;HPM_P2
2021/08/30 00:02:00;;;;;;;;;4.00;3.00;;;;;;;;5032413;28;45347;-83
2021/08/30 00:04:25;;;;;;;;;4.00;2.00;;;;;;;;5034024;28;45549;-83
2021/08/30 00:06:51;;;;;;;;;2.67;2.00;;;;;;;;5034024;28;45537;-83
2021/08/30 00:09:16;;;;;;;;;7.25;3.50;;;;;;;;5032030;28;46005;-82
2021/08/30 00:11:41;;;;;;;;;3.00;3.00;;;;;;;;5032219;28;45581;-83
2021/08/30 00:14:07;;;;;;;;;4.67;3.00;;;;;;;;5032440;28;45805;-82
2021/08/30 00:16:32;;;;;;;;;2.25;2.25;;;;;;;;5031641;28;45529;-83
2021/08/30 00:18:58;;;;;;;;;3.25;2.50;;;;;;;;5035243;28;45785;-83
2021/08/30 00:21:23;;;;;;;;;7.25;4.00;;;;;;;;5031570;28;45743;-82
2021/08/30 00:23:48;;;;;;;;;3.00;2.25;;;;;;;;5030853;28;46194;-83
2021/08/30 00:26:14;;;;;;;;;3.75;3.25;;;;;;;;5032243;28;48461;-84
2021/08/30 00:28:40;;;;;;;;;3.33;2.00;;;;;;;;5031712;28;45608;-83
2021/08/30 00:31:05;;;;;;;;;3.25;2.25;;;;;;;;5035353;28;45603;-83
2021/08/30 00:33:30;;;;;;;;;4.00;4.00;;;;;;;;5033595;28;45460;-83
2021/08/30 00:35:56;;;;;;;;;4.00;4.00;;;;;;;;5030493;28;48408;-83
2021/08/30 00:38:21;;;;;;;;;5.00;3.00;;;;;;;;5031855;28;45391;-83
2021/08/30 00:40:46;;;;;;;;;6.00;3.00;;;;;;;;5034458;28;45456;-82
2021/08/30 00:43:11;;;;;;;;;3.00;3.00;;;;;;;;5034170;28;46024;-83
2021/08/30 00:45:37;;;;;;;;;4.00;3.00;;;;;;;;5030983;28;46928;-83
2021/08/30 00:48:03;;;;;;;;;2.75;2.75;;;;;;;;5031883;28;45656;-83
2021/08/30 00:50:28;;;;;;;;;3.00;3.00;;;;;;;;5031283;28;45874;-82
2021/08/30 00:52:54;;;;;;;;;3.00;3.00;;;;;;;;5031748;28;45589;-81
2021/08/30 00:55:19;;;;;;;;;4.50;4.25;;;;;;;;5032115;28;46910;-83
2021/08/30 00:57:45;;;;;;;;;4.00;3.25;;;;;;;;5032963;28;45496;-83
2021/08/30 01:00:11;;;;;;;;;4.25;4.00;;;;;;;;5028850;28;45590;-82
2021/08/30 01:02:36;;;;;;;;;6.00;4.00;;;;;;;;5029622;28;45642;-83
2021/08/30 01:05:02;;;;;;;;;5.00;5.00;;;;;;;;5029597;28;45473;-82
2021/08/30 01:07:30;;;;;;;;;8.00;5.50;;;;;;;;5031753;28;45873;-83
2021/08/30 01:10:03;;;;;;;;;5.00;5.00;;;;;;;;5029712;28;45672;-83
2021/08/30 01:12:30;;;;;;;;;5.75;5.75;;;;;;;;5031519;28;45389;-82
2021/08/30 01:15:01;;;;;;;;;7.75;5.00;;;;;;;;5030679;28;46464;-82
2021/08/30 01:17:26;;;;;;;;;10.00;6.75;;;;;;;;5031056;28;45524;-83
2021/08/30 01:19:56;;;;;;;;;5.25;5.25;;;;;;;;5029727;28;45519;-83
2021/08/30 01:22:22;;;;;;;;;9.00;7.00;;;;;;;;5031687;28;45578;-82
2021/08/30 01:24:50;;;;;;;;;8.25;6.00;;;;;;;;5031334;28;47389;-82
2021/08/30 01:27:16;;;;;;;;;8.25;6.00;;;;;;;;5032043;28;46244;-83
2021/08/30 01:30:00;;;;;;;;;7.25;5.00;;;;;;;;5029938;28;45373;-83
2021/08/30 01:32:25;;;;;;;;;6.50;6.50;;;;;;;;5021608;28;45536;-82
2021/08/30 01:34:50;;;;;;;;;10.33;7.67;;;;;;;;5030814;28;46054;-82
2021/08/30 01:37:16;;;;;;;;;10.33;8.67;;;;;;;;5033031;28;45398;-83
2021/08/30 01:39:41;;;;;;;;;10.75;6.25;;;;;;;;5026591;28;45438;-82
2021/08/30 01:42:07;;;;;;;;;10.00;8.75;;;;;;;;5030691;28;45588;-81
2021/08/30 01:44:33;;;;;;;;;8.00;8.00;;;;;;;;5030737;28;46084;-83
2021/08/30 01:46:58;;;;;;;;;10.25;7.00;;;;;;;;5029797;28;45492;-82
2021/08/30 01:49:24;;;;;;;;;8.50;6.75;;;;;;;;5031042;28;45584;-83
2021/08/30 01:51:50;;;;;;;;;9.25;7.00;;;;;;;;5031651;28;45570;-82
2021/08/30 01:54:16;;;;;;;;;7.00;7.00;;;;;;;;5030432;28;46366;-82
2021/08/30 01:56:47;;;;;;;;;11.00;7.75;;;;;;;;5030249;28;45406;-82
2021/08/30 02:01:56;;;;;;;;;9.25;7.50;;;;;;;;5030652;28;45346;-83
2021/08/30 02:04:21;;;;;;;;;13.33;9.00;;;;;;;;5032287;28;46640;-83
2021/08/30 02:06:47;;;;;;;;;14.67;10.00;;;;;;;;5031520;28;45399;-82
2021/08/30 02:09:12;;;;;;;;;12.00;10.50;;;;;;;;5029088;28;45338;-83
2021/08/30 02:11:38;;;;;;;;;12.75;8.00;;;;;;;;5029919;28;45508;-83
2021/08/30 02:14:07;;;;;;;;;12.25;10.50;;;;;;;;5030228;28;45359;-82
2021/08/30 02:16:32;;;;;;;;;10.25;10.25;;;;;;;;5031815;28;45993;-83
2021/08/30 02:19:00;;;;;;;;;13.00;9.50;;;;;;;;5036093;28;45498;-82
2021/08/30 02:21:46;;;;;;;;;10.00;7.50;;;;;;;;5033007;28;45389;-83
2021/08/30 02:24:20;;;;;;;;;14.00;9.25;;;;;;;;5033817;28;46712;-83
2021/08/30 02:26:48;;;;;;;;;11.00;9.25;;;;;;;;5032450;28;45431;-83
2021/08/30 02:29:16;;;;;;;;;14.50;9.75;;;;;;;;5038693;28;45411;-83
2021/08/30 02:31:46;;;;;;;;;17.25;10.75;;;;;;;;5033254;28;46672;-83
2021/08/30 02:34:11;;;;;;;;;9.00;8.50;;;;;;;;5035885;28;45918;-82
2021/08/30 02:36:37;;;;;;;;;11.50;10.00;;;;;;;;5034475;28;45305;-83
2021/08/30 02:39:03;;;;;;;;;12.75;10.50;;;;;;;;5032161;28;45601;-82
2021/08/30 02:41:29;;;;;;;;;12.25;10.00;;;;;;;;5032774;28;45726;-83
2021/08/30 02:43:55;;;;;;;;;14.25;11.00;;;;;;;;5033447;28;46442;-83
2021/08/30 02:46:20;;;;;;;;;10.50;8.50;;;;;;;;5035041;28;45500;-82
2021/08/30 02:48:46;;;;;;;;;10.33;8.33;;;;;;;;5033536;28;45467;-83
2021/08/30 02:51:12;;;;;;;;;11.75;11.00;;;;;;;;5032815;28;45614;-83
2021/08/30 02:53:38;;;;;;;;;10.00;9.25;;;;;;;;5033759;28;45987;-83
2021/08/30 02:56:04;;;;;;;;;10.75;9.00;;;;;;;;5031978;28;45782;-83
2021/08/30 02:58:29;;;;;;;;;9.25;7.25;;;;;;;;5033038;28;45403;-83
2021/08/30 03:00:55;;;;;;;;;16.75;11.00;;;;;;;;5036055;28;45335;-83
2021/08/30 03:03:20;;;;;;;;;12.25;11.25;;;;;;;;5031879;28;47929;-84
2021/08/30 03:05:47;;;;;;;;;11.25;10.25;;;;;;;;5031858;28;45507;-83
2021/08/30 03:08:13;;;;;;;;;9.00;9.00;;;;;;;;5022103;28;45367;-82
2021/08/30 03:10:38;;;;;;;;;7.75;7.75;;;;;;;;5031997;28;45604;-83
2021/08/30 03:13:04;;;;;;;;;10.75;10.75;;;;;;;;5034723;28;48353;-83
2021/08/30 03:15:32;;;;;;;;;14.00;9.25;;;;;;;;5032395;28;46161;-83
2021/08/30 03:17:58;;;;;;;;;10.75;8.25;;;;;;;;5033137;28;45382;-83
2021/08/30 03:20:24;;;;;;;;;5.50;5.50;;;;;;;;5032908;28;45497;-83
2021/08/30 03:22:50;;;;;;;;;11.00;9.25;;;;;;;;5034046;28;46548;-83
2021/08/30 03:25:16;;;;;;;;;10.00;9.25;;;;;;;;5033377;28;45644;-83
2021/08/30 03:27:45;;;;;;;;;10.00;9.25;;;;;;;;5027390;28;45417;-82
2021/08/30 03:30:12;;;;;;;;;10.00;9.75;;;;;;;;5031589;28;45483;-83
2021/08/30 03:32:37;;;;;;;;;12.50;9.75;;;;;;;;5032832;28;45572;-82
2021/08/30 03:35:03;;;;;;;;;16.00;11.00;;;;;;;;5032561;28;45540;-82
2021/08/30 03:37:28;;;;;;;;;10.50;8.75;;;;;;;;5032292;28;45529;-84
2021/08/30 03:39:54;;;;;;;;;13.00;9.50;;;;;;;;5034751;28;45427;-82
2021/08/30 03:42:19;;;;;;;;;9.00;9.00;;;;;;;;5032422;28;46413;-82
2021/08/30 03:44:45;;;;;;;;;11.00;9.00;;;;;;;;5032515;28;45371;-83
2021/08/30 03:47:11;;;;;;;;;10.00;8.50;;;;;;;;5031969;28;45631;-83
2021/08/30 03:49:36;;;;;;;;;11.50;10.50;;;;;;;;5032518;28;45446;-82
2021/08/30 03:52:02;;;;;;;;;11.50;9.75;;;;;;;;5030219;28;47682;-83
2021/08/30 03:54:27;;;;;;;;;12.50;8.50;;;;;;;;5032334;28;45308;-82
2021/08/30 03:56:53;;;;;;;;;12.25;10.25;;;;;;;;5028053;28;45376;-83
2021/08/30 03:59:19;;;;;;;;;9.75;9.50;;;;;;;;5027046;28;45857;-83
2021/08/30 04:01:45;;;;;;;;;9.25;9.25;;;;;;;;5031502;28;48104;-83
2021/08/30 04:04:17;;;;;;;;;10.00;8.25;;;;;;;;5033536;28;46259;-83
2021/08/30 04:06:43;;;;;;;;;11.00;8.75;;;;;;;;5035216;28;46590;-82
2021/08/30 04:09:08;;;;;;;;;12.00;9.75;;;;;;;;5023850;28;45458;-84
2021/08/30 04:11:34;;;;;;;;;10.50;9.00;;;;;;;;5026979;28;45560;-82
2021/08/30 04:13:59;;;;;;;;;13.50;8.75;;;;;;;;5032571;28;45302;-82
2021/08/30 04:16:24;;;;;;;;;11.50;9.75;;;;;;;;5033542;28;45499;-83
2021/08/30 04:18:50;;;;;;;;;13.67;9.67;;;;;;;;5034387;28;45362;-83
2021/08/30 04:21:15;;;;;;;;;12.67;10.33;;;;;;;;5031267;28;45615;-83
2021/08/30 04:23:40;;;;;;;;;10.67;10.33;;;;;;;;5031581;28;45685;-83
2021/08/30 04:26:05;;;;;;;;;11.67;9.67;;;;;;;;5031859;28;45516;-83
2021/08/30 04:28:30;;;;;;;;;14.00;9.33;;;;;;;;5032740;28;45449;-83
2021/08/30 04:30:56;;;;;;;;;13.33;10.33;;;;;;;;5034161;28;45514;-83
2021/08/30 04:33:22;;;;;;;;;8.67;7.67;;;;;;;;5031723;28;45364;-83
2021/08/30 04:35:48;;;;;;;;;14.00;10.50;;;;;;;;5031369;28;45598;-81
2021/08/30 04:38:13;;;;;;;;;12.75;9.75;;;;;;;;5030508;28;45524;-83
2021/08/30 04:40:39;;;;;;;;;10.50;7.50;;;;;;;;5031332;28;45335;-82
2021/08/30 04:43:04;;;;;;;;;10.75;9.50;;;;;;;;5033846;28;45496;-82
2021/08/30 04:45:29;;;;;;;;;13.67;11.00;;;;;;;;5031506;28;45421;-82
2021/08/30 04:47:54;;;;;;;;;11.67;10.67;;;;;;;;5029708;28;45617;-82
2021/08/30 04:50:20;;;;;;;;;15.33;11.33;;;;;;;;5031313;28;47244;-82
2021/08/30 04:52:45;;;;;;;;;11.75;10.50;;;;;;;;5024748;28;45422;-83
2021/08/30 04:55:11;;;;;;;;;12.00;9.00;;;;;;;;5034623;28;45353;-82
2021/08/30 04:57:36;;;;;;;;;11.75;9.25;;;;;;;;5032274;28;45324;-89
2021/08/30 05:00:02;;;;;;;;;11.25;11.25;;;;;;;;5030775;28;45532;-83
2021/08/30 05:02:27;;;;;;;;;18.00;11.25;;;;;;;;5030033;28;45408;-83
2021/08/30 05:04:55;;;;;;;;;12.50;10.25;;;;;;;;5025395;28;45480;-83
2021/08/30 05:07:20;;;;;;;;;14.75;11.50;;;;;;;;5020957;28;45423;-83
2021/08/30 05:09:46;;;;;;;;;11.00;10.50;;;;;;;;5032455;28;45529;-82
2021/08/30 05:12:11;;;;;;;;;15.00;12.00;;;;;;;;5030292;28;45410;-83
2021/08/30 05:14:36;;;;;;;;;11.00;9.67;;;;;;;;5030026;28;45468;-83
2021/08/30 05:17:01;;;;;;;;;9.33;9.33;;;;;;;;5031133;28;46033;-83
2021/08/30 05:19:27;;;;;;;;;14.25;11.75;;;;;;;;5032159;28;45488;-83
2021/08/30 05:21:53;;;;;;;;;15.33;13.00;;;;;;;;5033068;28;45698;-83
2021/08/30 05:24:18;;;;;;;;;12.75;10.75;;;;;;;;5029575;28;45459;-83
2021/08/30 05:26:43;;;;;;;;;15.33;10.33;;;;;;;;5031357;28;45431;-83
2021/08/30 05:29:08;;;;;;;;;12.33;11.33;;;;;;;;5030529;28;45989;-83
2021/08/30 05:31:34;;;;;;;;;14.67;11.67;;;;;;;;5030255;28;45464;-83
2021/08/30 05:33:59;;;;;;;;;14.33;11.33;;;;;;;;5034011;28;45423;-82
2021/08/30 05:36:25;;;;;;;;;12.00;12.00;;;;;;;;5029797;28;45338;-84
2021/08/30 05:38:51;;;;;;;;;18.50;11.00;;;;;;;;5030524;28;46541;-84
2021/08/30 05:41:17;;;;;;;;;9.00;9.00;;;;;;;;5030715;28;45440;-82
2021/08/30 05:43:42;;;;;;;;;13.50;11.25;;;;;;;;5029391;28;45644;-83
2021/08/30 05:46:09;;;;;;;;;13.33;12.00;;;;;;;;5033098;28;45349;-83
2021/08/30 05:48:35;;;;;;;;;18.50;12.00;;;;;;;;5025138;28;47762;-84
2021/08/30 05:51:00;;;;;;;;;13.67;12.33;;;;;;;;5030868;28;45595;-83
2021/08/30 05:53:25;;;;;;;;;17.67;13.67;;;;;;;;5030223;28;45515;-83
2021/08/30 05:55:50;;;;;;;;;14.00;13.00;;;;;;;;5030229;28;45628;-83
2021/08/30 05:58:16;;;;;;;;;18.25;13.75;;;;;;;;5030786;28;47520;-82
2021/08/30 06:00:41;;;;;;;;;16.00;13.25;;;;;;;;5026094;28;45684;-83
2021/08/30 06:03:06;;;;;;;;;20.00;16.33;;;;;;;;5016902;28;45473;-84
2021/08/30 06:05:31;;;;;;;;;16.67;12.33;;;;;;;;5018457;28;45303;-83
2021/08/30 06:07:57;;;;;;;;;17.67;15.00;;;;;;;;5029662;28;47092;-83
2021/08/30 06:10:22;;;;;;;;;16.33;14.33;;;;;;;;5031772;28;45331;-82
2021/08/30 06:12:48;;;;;;;;;18.00;15.00;;;;;;;;5028906;28;45353;-84
2021/08/30 06:15:13;;;;;;;;;16.75;15.00;;;;;;;;5016123;28;45654;-83
2021/08/30 06:17:39;;;;;;;;;20.25;14.00;;;;;;;;5015441;28;47939;-83
2021/08/30 06:20:04;;;;;;;;;19.75;15.75;;;;;;;;5015186;28;45478;-83
2021/08/30 06:22:30;;;;;;;;;19.50;15.50;;;;;;;;5014770;28;45550;-83
2021/08/30 06:24:55;;;;;;;;;19.00;15.50;;;;;;;;5014308;28;45530;-83
2021/08/30 06:27:20;;;;;;;;;23.00;18.00;;;;;;;;5015417;28;45622;-83
2021/08/30 06:29:47;;;;;;;;;22.25;16.00;;;;;;;;5013921;28;46121;-82
2021/08/30 06:32:12;;;;;;;;;24.00;17.75;;;;;;;;5014165;28;45334;-83
2021/08/30 06:34:37;;;;;;;;;22.25;20.25;;;;;;;;5015184;28;45866;-83
2021/08/30 06:37:03;;;;;;;;;25.50;19.50;;;;;;;;5017356;28;45638;-83
2021/08/30 06:39:29;;;;;;;;;28.00;21.00;;;;;;;;5017724;28;45535;-82
2021/08/30 06:41:54;;;;;;;;;23.75;21.25;;;;;;;;5016739;28;45549;-83
2021/08/30 06:44:19;;;;;;;;;28.00;22.00;;;;;;;;5013027;28;45445;-83
2021/08/30 06:46:44;;;;;;;;;22.00;20.33;;;;;;;;5016787;28;45750;-84
2021/08/30 06:49:10;;;;;;;;;26.00;21.00;;;;;;;;5017178;28;45474;-83
2021/08/30 06:51:35;;;;;;;;;32.75;23.25;;;;;;;;5013964;28;45656;-84
2021/08/30 06:54:00;;;;;;;;;24.00;23.75;;;;;;;;5014649;28;45759;-84
2021/08/30 06:56:25;;;;;;;;;32.00;28.25;;;;;;;;5013213;28;46351;-83
2021/08/30 06:58:51;;;;;;;;;28.00;25.00;;;;;;;;5016063;28;48987;-82
2021/08/30 07:01:16;;;;;;;;;32.33;26.33;;;;;;;;5015066;28;45497;-81
2021/08/30 07:03:41;;;;;;;;;27.33;24.00;;;;;;;;5017727;28;45517;-82
2021/08/30 07:06:07;;;;;;;;;28.75;24.75;;;;;;;;5019770;28;46466;-83
2021/08/30 07:08:32;;;;;;;;;34.33;24.00;;;;;;;;5023388;28;45383;-83
2021/08/30 07:10:58;;;;;;;;;25.25;22.75;;;;;;;;5032849;28;45450;-82
2021/08/30 07:13:23;;;;;;;;;31.33;23.33;;;;;;;;5032026;28;45661;-82
2021/08/30 07:15:48;;;;;;;;;27.00;24.33;;;;;;;;5032715;28;46179;-82
2021/08/30 07:18:14;;;;;;;;;29.75;22.75;;;;;;;;5033357;28;45470;-82
2021/08/30 07:20:39;;;;;;;;;26.00;20.50;;;;;;;;5030934;28;45343;-82
2021/08/30 07:23:04;;;;;;;;;27.25;22.75;;;;;;;;5032058;28;45569;-83
2021/08/30 07:25:30;;;;;;;;;24.67;21.67;;;;;;;;5032807;28;45481;-82
2021/08/30 07:27:55;;;;;;;;;25.67;22.67;;;;;;;;5035519;28;45409;-83
2021/08/30 07:30:20;;;;;;;;;25.33;23.33;;;;;;;;5030380;28;45664;-83
2021/08/30 07:32:45;;;;;;;;;23.33;19.33;;;;;;;;5031489;28;45525;-83
2021/08/30 07:35:11;;;;;;;;;25.00;22.67;;;;;;;;5029966;28;47291;-83
2021/08/30 07:37:37;;;;;;;;;28.25;24.00;;;;;;;;5032514;28;45722;-83
2021/08/30 07:40:02;;;;;;;;;28.50;23.50;;;;;;;;5035697;28;45413;-83
2021/08/30 07:42:27;;;;;;;;;29.50;25.25;;;;;;;;5031987;28;45641;-83
2021/08/30 07:44:53;;;;;;;;;23.00;19.33;;;;;;;;5030981;28;46134;-83
2021/08/30 07:47:18;;;;;;;;;25.33;21.00;;;;;;;;5030486;28;45447;-83
2021/08/30 07:49:43;;;;;;;;;19.67;17.67;;;;;;;;5031438;28;45538;-83
2021/08/30 07:52:08;;;;;;;;;20.25;19.50;;;;;;;;5035194;28;45423;-82
2021/08/30 07:54:34;;;;;;;;;24.67;17.67;;;;;;;;5032496;28;46672;-83
2021/08/30 07:56:59;;;;;;;;;23.75;19.25;;;;;;;;5033113;28;45236;-82
2021/08/30 07:59:24;;;;;;;;;26.67;21.67;;;;;;;;5030352;28;45709;-83
2021/08/30 08:01:50;;;;;;;;;30.75;22.00;;;;;;;;5032050;28;45477;-82
2021/08/30 08:04:15;;;;;;;;;22.67;21.00;;;;;;;;5034065;28;46087;-82
2021/08/30 08:06:40;;;;;;;;;23.00;21.00;;;;;;;;5012887;28;45848;-83
2021/08/30 08:09:06;;;;;;;;;22.25;21.75;;;;;;;;5030368;28;45645;-81
2021/08/30 08:11:31;;;;;;;;;22.33;19.67;;;;;;;;5027687;28;45917;-83
2021/08/30 08:13:56;;;;;;;;;25.00;18.75;;;;;;;;5030140;28;45896;-83
2021/08/30 08:16:22;;;;;;;;;21.50;18.50;;;;;;;;5034238;28;45276;-83
2021/08/30 08:18:47;;;;;;;;;25.00;21.33;;;;;;;;5031628;28;45502;-83
2021/08/30 08:21:12;;;;;;;;;18.50;18.50;;;;;;;;5029459;28;45534;-83
2021/08/30 08:23:38;;;;;;;;;20.00;17.50;;;;;;;;5030370;28;45832;-82
2021/08/30 08:26:03;;;;;;;;;21.25;19.75;;;;;;;;5030200;28;48285;-83
2021/08/30 08:28:29;;;;;;;;;23.00;17.50;;;;;;;;5032017;28;45534;-83
2021/08/30 08:30:54;;;;;;;;;22.33;18.33;;;;;;;;5033817;28;45332;-82
2021/08/30 08:33:19;;;;;;;;;21.50;14.75;;;;;;;;5030582;28;46122;-83
2021/08/30 08:35:45;;;;;;;;;21.00;16.67;;;;;;;;5029407;28;46093;-83
2021/08/30 08:38:11;;;;;;;;;19.00;17.00;;;;;;;;5030409;28;45530;-82
2021/08/30 08:40:36;;;;;;;;;18.75;17.50;;;;;;;;5032611;28;45601;-83
2021/08/30 08:43:01;;;;;;;;;18.25;17.00;;;;;;;;5028941;28;48420;-83
2021/08/30 08:45:28;;;;;;;;;17.00;17.00;;;;;;;;5030267;28;45356;-83
2021/08/30 08:47:53;;;;;;;;;21.25;16.25;;;;;;;;5030549;28;45453;-83
2021/08/30 08:50:20;;;;;;;;;21.50;17.00;;;;;;;;5031300;28;45628;-83
2021/08/30 08:52:45;;;;;;;;;20.50;17.00;;;;;;;;5030318;28;46004;-82
2021/08/30 08:55:12;;;;;;;;;19.50;14.75;;;;;;;;5032197;28;45505;-83
2021/08/30 08:57:38;;;;;;;;;19.25;16.50;;;;;;;;5032143;28;45529;-83
2021/08/30 09:00:04;;;;;;;;;22.00;16.50;;;;;;;;5030292;28;45546;-81
2021/08/30 09:02:30;;;;;;;;;16.50;16.25;;;;;;;;5030426;28;46475;-83
2021/08/30 09:04:57;;;;;;;;;17.25;14.75;;;;;;;;5029668;28;45756;-83
2021/08/30 09:07:29;;;;;;;;;13.75;12.75;;;;;;;;5028111;28;45511;-83
2021/08/30 09:09:57;;;;;;;;;15.50;15.25;;;;;;;;5033166;28;45937;-82
2021/08/30 09:12:23;;;;;;;;;19.25;14.75;;;;;;;;5025513;28;45830;-82
2021/08/30 09:14:48;;;;;;;;;14.25;13.25;;;;;;;;5031010;28;45465;-82
2021/08/30 09:17:13;;;;;;;;;17.50;15.50;;;;;;;;5027478;28;45416;-83
2021/08/30 09:19:40;;;;;;;;;16.33;11.33;;;;;;;;5026017;28;45447;-83
2021/08/30 09:22:06;;;;;;;;;14.50;13.75;;;;;;;;5027847;28;46775;-83
2021/08/30 09:24:31;;;;;;;;;16.75;13.00;;;;;;;;5022605;28;45983;-83
2021/08/30 09:26:56;;;;;;;;;15.00;12.33;;;;;;;;5022159;28;45514;-84
2021/08/30 09:29:21;;;;;;;;;14.67;13.67;;;;;;;;5026548;28;45669;-83
2021/08/30 09:31:56;;;;;;;;;14.33;12.33;;;;;;;;5025066;28;47453;-84
2021/08/30 09:34:21;;;;;;;;;14.75;13.25;;;;;;;;5032522;28;46310;-84
2021/08/30 09:36:47;;;;;;;;;16.00;13.75;;;;;;;;5026354;28;45414;-83
2021/08/30 09:39:14;;;;;;;;;16.25;15.00;;;;;;;;5022099;28;45520;-84
2021/08/30 09:41:43;;;;;;;;;17.00;13.00;;;;;;;;5018576;28;48464;-84
2021/08/30 09:44:08;;;;;;;;;17.50;14.25;;;;;;;;5024147;28;46288;-82
2021/08/30 09:46:34;;;;;;;;;14.25;12.50;;;;;;;;5029522;28;45406;-84
2021/08/30 09:49:08;;;;;;;;;15.00;14.00;;;;;;;;5032904;28;45520;-83
2021/08/30 09:51:38;;;;;;;;;13.50;12.50;;;;;;;;5032113;28;46229;-84
2021/08/30 09:54:04;;;;;;;;;16.75;14.25;;;;;;;;5030054;28;45381;-84
2021/08/30 09:56:32;;;;;;;;;15.50;14.50;;;;;;;;5028047;28;45562;-83
2021/08/30 09:58:58;;;;;;;;;14.50;12.75;;;;;;;;5030259;28;45403;-84
2021/08/30 10:01:23;;;;;;;;;17.75;15.75;;;;;;;;5031559;28;46206;-81
2021/08/30 10:03:49;;;;;;;;;14.00;13.50;;;;;;;;5030492;28;46197;-82
2021/08/30 10:06:14;;;;;;;;;11.75;11.75;;;;;;;;5029837;28;46028;-81
2021/08/30 10:08:39;;;;;;;;;15.00;13.33;;;;;;;;5027976;28;45467;-82
2021/08/30 10:11:05;;;;;;;;;18.33;16.00;;;;;;;;5029934;28;46386;-83
2021/08/30 10:13:30;;;;;;;;;13.50;11.50;;;;;;;;5031256;28;45567;-82
2021/08/30 10:15:55;;;;;;;;;16.33;13.67;;;;;;;;5032172;28;45462;-83
2021/08/30 10:18:20;;;;;;;;;15.00;14.00;;;;;;;;5029983;28;45449;-82
2021/08/30 10:20:49;;;;;;;;;13.33;10.67;;;;;;;;5028243;28;46367;-83
2021/08/30 10:23:15;;;;;;;;;12.00;12.00;;;;;;;;5019071;28;45820;-83
2021/08/30 10:25:42;;;;;;;;;15.00;13.25;;;;;;;;5021920;28;45517;-83
2021/08/30 10:28:11;;;;;;;;;12.75;11.00;;;;;;;;5019220;28;45302;-82
2021/08/30 10:30:37;;;;;;;;;10.25;10.25;;;;;;;;5028635;28;45603;-83
2021/08/30 10:33:05;;;;;;;;;18.00;10.50;;;;;;;;5029971;28;46032;-83
2021/08/30 10:35:33;;;;;;;;;16.00;13.00;;;;;;;;5030498;28;47371;-82
2021/08/30 10:38:02;;;;;;;;;12.00;8.50;;;;;;;;5034166;28;45252;-83
2021/08/30 10:40:29;;;;;;;;;9.75;9.75;;;;;;;;5031414;28;45458;-83
2021/08/30 10:43:02;;;;;;;;;12.00;11.50;;;;;;;;5038149;28;45345;-83
2021/08/30 10:45:35;;;;;;;;;13.00;11.50;;;;;;;;5034605;28;45462;-83
2021/08/30 10:48:05;;;;;;;;;14.25;11.00;;;;;;;;5034062;28;45297;-83
2021/08/30 10:50:31;;;;;;;;;17.25;13.25;;;;;;;;5028593;28;45480;-83
2021/08/30 10:53:04;;;;;;;;;14.25;13.50;;;;;;;;5032502;28;45494;-83
2021/08/30 10:55:35;;;;;;;;;14.25;12.50;;;;;;;;5016345;28;45536;-83
2021/08/30 10:58:09;;;;;;;;;10.25;10.25;;;;;;;;5032822;28;45635;-82
2021/08/30 11:00:34;;;;;;;;;11.50;11.50;;;;;;;;5035448;28;45352;-83
2021/08/30 11:03:00;;;;;;;;;13.67;11.00;;;;;;;;5034673;28;45613;-83
2021/08/30 11:05:27;;;;;;;;;11.75;11.75;;;;;;;;5035413;28;45571;-82
2021/08/30 11:07:52;;;;;;;;;10.50;10.50;;;;;;;;5039589;28;45543;-83
2021/08/30 11:10:19;;;;;;;;;10.50;9.75;;;;;;;;5040781;28;45960;-83
2021/08/30 11:12:44;;;;;;;;;9.50;9.00;;;;;;;;5043246;28;45347;-83
2021/08/30 11:15:10;;;;;;;;;14.67;11.00;;;;;;;;5035178;28;45433;-84
2021/08/30 11:17:36;;;;;;;;;14.00;12.50;;;;;;;;5042898;28;45382;-83
2021/08/30 11:20:03;;;;;;;;;12.25;10.75;;;;;;;;5046861;28;47531;-83
2021/08/30 11:22:28;;;;;;;;;13.25;11.00;;;;;;;;5044767;28;45438;-82
2021/08/30 11:24:54;;;;;;;;;15.75;11.00;;;;;;;;5048804;28;45424;-82
2021/08/30 11:27:21;;;;;;;;;15.00;12.00;;;;;;;;5044085;28;45470;-83
2021/08/30 11:29:46;;;;;;;;;13.75;10.25;;;;;;;;5042396;28;45407;-83
2021/08/30 11:32:13;;;;;;;;;12.75;11.00;;;;;;;;5042780;28;45442;-82
2021/08/30 11:34:38;;;;;;;;;14.25;12.25;;;;;;;;5038659;28;45475;-83
2021/08/30 11:37:04;;;;;;;;;14.25;12.50;;;;;;;;5044323;28;45374;-82
2021/08/30 11:39:32;;;;;;;;;16.50;12.25;;;;;;;;5046006;28;45500;-84
2021/08/30 11:41:59;;;;;;;;;14.75;13.00;;;;;;;;5038318;28;46738;-83
2021/08/30 11:44:24;;;;;;;;;15.00;12.25;;;;;;;;5040280;28;45619;-83
2021/08/30 11:46:54;;;;;;;;;16.25;13.00;;;;;;;;5038573;28;45576;-83
2021/08/30 11:49:21;;;;;;;;;14.75;12.50;;;;;;;;5035940;28;46218;-82
2021/08/30 11:51:46;;;;;;;;;12.25;9.75;;;;;;;;5037188;28;46130;-83
2021/08/30 11:54:13;;;;;;;;;14.50;10.00;;;;;;;;5024126;28;45635;-84
2021/08/30 11:56:38;;;;;;;;;10.25;10.25;;;;;;;;5032411;28;45688;-83
2021/08/30 11:59:03;;;;;;;;;10.75;10.75;;;;;;;;5028020;28;45733;-83
2021/08/30 12:01:35;;;;;;;;;11.00;10.33;;;;;;;;5039465;28;45573;-83
2021/08/30 12:04:00;;;;;;;;;12.00;10.25;;;;;;;;5034843;28;45641;-83
2021/08/30 12:06:25;;;;;;;;;17.00;13.67;;;;;;;;5032056;28;51296;-84
2021/08/30 12:08:51;;;;;;;;;13.33;10.33;;;;;;;;5033047;28;46157;-83
2021/08/30 12:11:18;;;;;;;;;12.50;12.50;;;;;;;;5031772;28;45933;-83
2021/08/30 12:16:26;;;;;;;;;13.25;11.00;;;;;;;;5033815;28;45429;-82
2021/08/30 12:18:52;;;;;;;;;12.50;10.00;;;;;;;;5027395;28;48498;-84
2021/08/30 12:21:31;;;;;;;;;15.00;11.00;;;;;;;;5025626;28;45609;-83
2021/08/30 12:23:57;;;;;;;;;13.00;11.25;;;;;;;;5031335;28;45411;-83
2021/08/30 12:26:23;;;;;;;;;14.75;11.75;;;;;;;;5032413;28;45369;-83
2021/08/30 12:28:53;;;;;;;;;18.00;13.00;;;;;;;;5023208;28;45501;-84
2021/08/30 12:31:32;;;;;;;;;14.00;12.25;;;;;;;;5032920;28;46378;-83
2021/08/30 12:34:04;;;;;;;;;13.25;11.75;;;;;;;;5031408;28;45921;-83
2021/08/30 12:36:29;;;;;;;;;16.75;12.25;;;;;;;;5030757;28;45612;-84
2021/08/30 12:38:54;;;;;;;;;14.67;13.00;;;;;;;;5030631;28;47541;-84
2021/08/30 12:41:20;;;;;;;;;11.33;11.33;;;;;;;;5030256;28;45614;-81
2021/08/30 12:43:48;;;;;;;;;18.00;11.00;;;;;;;;5028733;28;45622;-79
2021/08/30 12:46:14;;;;;;;;;14.75;13.00;;;;;;;;5033761;28;45376;-83
2021/08/30 12:48:39;;;;;;;;;12.25;12.00;;;;;;;;5026793;28;48360;-83
2021/08/30 12:51:04;;;;;;;;;12.00;10.00;;;;;;;;5030593;28;45430;-84
2021/08/30 12:53:30;;;;;;;;;12.25;12.25;;;;;;;;5022457;28;45402;-83
2021/08/30 12:55:55;;;;;;;;;15.50;12.25;;;;;;;;5018961;28;45775;-84
2021/08/30 12:58:21;;;;;;;;;12.50;12.25;;;;;;;;5025982;28;45344;-83
2021/08/30 13:00:47;;;;;;;;;16.00;14.33;;;;;;;;5022840;28;45586;-84
2021/08/30 13:03:12;;;;;;;;;11.50;10.25;;;;;;;;5020187;28;45552;-83
2021/08/30 13:05:41;;;;;;;;;13.50;10.75;;;;;;;;5018031;28;45698;-82
2021/08/30 13:08:07;;;;;;;;;15.25;11.25;;;;;;;;5019292;28;46272;-82
2021/08/30 13:10:37;;;;;;;;;11.25;10.00;;;;;;;;5021616;28;45739;-83
2021/08/30 13:13:02;;;;;;;;;12.00;12.00;;;;;;;;5016078;28;45529;-81
2021/08/30 13:15:27;;;;;;;;;14.00;11.25;;;;;;;;5031291;28;45584;-83
2021/08/30 13:17:53;;;;;;;;;12.33;10.00;;;;;;;;5024125;28;45370;-86
2021/08/30 13:20:19;;;;;;;;;11.00;9.00;;;;;;;;5030457;28;45397;-82
2021/08/30 13:22:45;;;;;;;;;11.25;10.50;;;;;;;;5030003;28;45575;-81
2021/08/30 13:25:14;;;;;;;;;9.50;9.50;;;;;;;;5031197;28;45487;-82
2021/08/30 13:27:44;;;;;;;;;11.75;10.75;;;;;;;;5030753;28;48113;-83
2021/08/30 13:30:10;;;;;;;;;10.00;10.00;;;;;;;;5031640;28;45580;-85
2021/08/30 13:32:36;;;;;;;;;10.00;9.00;;;;;;;;5029370;28;45422;-84
2021/08/30 13:35:01;;;;;;;;;11.50;10.25;;;;;;;;5030488;28;45525;-84
2021/08/30 13:37:26;;;;;;;;;9.33;9.33;;;;;;;;5031391;28;45532;-83
2021/08/30 13:39:51;;;;;;;;;10.00;10.00;;;;;;;;5023944;28;45522;-83
2021/08/30 13:42:16;;;;;;;;;11.00;11.00;;;;;;;;5026691;28;45686;-79
2021/08/30 13:44:42;;;;;;;;;12.50;10.25;;;;;;;;5030255;28;45433;-85
2021/08/30 13:47:07;;;;;;;;;12.75;11.75;;;;;;;;5031426;28;46361;-83
2021/08/30 13:49:32;;;;;;;;;11.75;11.25;;;;;;;;5028636;28;45760;-85
2021/08/30 13:51:58;;;;;;;;;14.33;12.00;;;;;;;;5032899;28;45625;-85
2021/08/30 13:54:23;;;;;;;;;10.67;9.33;;;;;;;;5031483;28;45432;-84
2021/08/30 13:56:48;;;;;;;;;12.50;11.00;;;;;;;;5029519;28;45536;-82
2021/08/30 13:59:13;;;;;;;;;11.67;11.00;;;;;;;;5029578;28;45570;-85
2021/08/30 14:01:39;;;;;;;;;9.75;9.75;;;;;;;;5029557;28;45318;-84
2021/08/30 14:04:04;;;;;;;;;9.67;9.67;;;;;;;;5033552;28;45394;-83
2021/08/30 14:06:29;;;;;;;;;13.00;11.00;;;;;;;;5028293;28;47179;-85
2021/08/30 14:08:54;;;;;;;;;12.00;10.75;;;;;;;;5028232;28;45407;-82
2021/08/30 14:11:20;;;;;;;;;13.00;11.33;;;;;;;;5021230;28;45474;-83
2021/08/30 14:13:45;;;;;;;;;12.75;10.75;;;;;;;;5027920;28;45391;-83
2021/08/30 14:16:11;;;;;;;;;12.67;9.67;;;;;;;;5031109;28;45414;-84
2021/08/30 14:18:36;;;;;;;;;13.00;13.00;;;;;;;;5029470;28;45466;-84
2021/08/30 14:21:03;;;;;;;;;11.67;11.67;;;;;;;;5029086;28;45397;-84
2021/08/30 14:23:28;;;;;;;;;13.25;11.25;;;;;;;;5020645;28;45655;-83